createdAt,value
2019-01-15T00:00:30.069Z,55.32
2019-01-15T00:02:57.346Z,55.83
2019-01-15T00:05:24.437Z,55.74
2019-01-15T00:07:51.539Z,55.84
2019-01-15T00:10:18.623Z,56.47
2019-01-15T00:12:45.736Z,57.01
2019-01-15T00:15:13.034Z,57.14
2019-01-15T00:17:40.123Z,57.35
2019-01-15T00:20:07.904Z,57.63
2019-01-15T00:22:35.043Z,57.82
2019-01-15T00:25:02.135Z,58.03
2019-01-15T00:27:29.308Z,58.16
2019-01-15T00:29:56.403Z,58.39
2019-01-15T00:32:23.491Z,58.13
2019-01-15T00:34:50.593Z,58.17
2019-01-15T00:37:17.698Z,57.85
2019-01-15T00:39:44.804Z,57.51
2019-01-15T00:42:15.357Z,57.53
2019-01-15T00:44:40.897Z,57.47
2019-01-15T00:47:07.981Z,57.49
2019-01-15T00:52:06.332Z,55.81
2019-01-15T00:54:34.504Z,55.68
2019-01-15T00:57:01.712Z,55.83
2019-01-15T00:59:29.092Z,55.74
2019-01-15T01:01:56.300Z,55.87
2019-01-15T01:04:25.200Z,55.53
2019-01-15T01:06:52.280Z,55.05
2019-01-15T01:09:19.368Z,55.10
2019-01-15T01:11:46.461Z,55.04
2019-01-15T01:14:13.558Z,54.61
2019-01-15T01:16:40.662Z,53.36
2019-01-15T01:19:07.752Z,53.82
2019-01-15T01:21:34.852Z,53.49
2019-01-15T01:24:01.944Z,53.63
2019-01-15T01:26:29.081Z,53.38
2019-01-15T01:28:56.164Z,52.65
2019-01-15T01:31:23.264Z,53.28
2019-01-15T01:33:50.488Z,53.42
2019-01-15T01:36:17.564Z,53.52
2019-01-15T01:38:44.662Z,53.64
2019-01-15T01:41:11.753Z,53.41
2019-01-15T01:43:38.891Z,53.18
2019-01-15T01:46:05.979Z,53.63
2019-01-15T01:48:33.072Z,53.28
2019-01-15T01:51:00.167Z,53.41
2019-01-15T01:53:27.267Z,53.33
2019-01-15T01:55:54.366Z,53.53
2019-01-15T01:58:21.572Z,53.64
2019-01-15T02:00:48.669Z,53.36
2019-01-15T02:03:15.757Z,53.11
2019-01-15T02:05:42.892Z,52.82
2019-01-15T02:08:09.988Z,52.91
2019-01-15T02:10:37.071Z,53.07
2019-01-15T02:13:04.181Z,53.25
2019-01-15T02:15:31.267Z,52.33
2019-01-15T02:17:58.371Z,52.80
2019-01-15T02:20:25.464Z,53.05
2019-01-15T02:22:52.552Z,52.42
2019-01-15T02:25:19.649Z,52.72
2019-01-15T02:27:49.124Z,52.39
2019-01-15T02:30:18.266Z,52.61
2019-01-15T02:32:45.376Z,52.01
2019-01-15T02:35:12.475Z,51.93
2019-01-15T02:37:39.673Z,52.00
2019-01-15T02:40:08.417Z,51.93
2019-01-15T02:42:35.564Z,52.30
2019-01-15T02:45:03.899Z,51.73
2019-01-15T02:47:30.973Z,51.99
2019-01-15T02:49:58.075Z,52.24
2019-01-15T02:52:25.167Z,52.06
2019-01-15T02:54:52.262Z,51.94
2019-01-15T02:57:19.351Z,52.28
2019-01-15T02:59:46.454Z,52.50
2019-01-15T03:02:13.588Z,52.27
2019-01-15T03:04:41.898Z,51.98
2019-01-15T03:07:09.324Z,52.33
2019-01-15T03:09:39.326Z,52.01
2019-01-15T03:12:06.456Z,52.28
2019-01-15T03:14:33.561Z,51.98
2019-01-15T03:17:00.657Z,51.97
2019-01-15T03:19:27.811Z,51.84
2019-01-15T03:21:54.904Z,51.71
2019-01-15T03:24:21.990Z,51.79
2019-01-15T03:26:49.088Z,51.56
2019-01-15T03:29:16.192Z,51.66
2019-01-15T03:31:43.282Z,51.38
2019-01-15T03:34:10.379Z,51.33
2019-01-15T03:36:37.771Z,51.80
2019-01-15T03:39:07.608Z,52.05
2019-01-15T03:41:34.808Z,51.60
2019-01-15T03:44:02.614Z,51.43
2019-01-15T03:46:29.705Z,51.58
2019-01-15T03:48:56.801Z,51.80
2019-01-15T03:51:23.898Z,51.18
2019-01-15T03:53:50.997Z,50.88
2019-01-15T03:56:18.086Z,51.08
2019-01-15T03:58:45.213Z,51.20
2019-01-15T04:01:12.304Z,51.53
2019-01-15T04:03:39.397Z,51.82
2019-01-15T04:06:06.481Z,51.98
2019-01-15T04:08:33.576Z,52.15
2019-01-15T04:11:00.672Z,51.99
2019-01-15T04:13:27.836Z,51.32
2019-01-15T04:15:54.945Z,51.26
2019-01-15T04:18:22.040Z,51.50
2019-01-15T04:20:49.134Z,51.50
2019-01-15T04:23:16.231Z,51.74
2019-01-15T04:25:43.326Z,52.11
2019-01-15T04:28:10.425Z,52.31
2019-01-15T04:30:37.544Z,52.32
2019-01-15T04:33:04.621Z,52.36
2019-01-15T04:35:31.717Z,52.00
2019-01-15T04:37:58.821Z,52.16
2019-01-15T04:40:25.914Z,52.28
2019-01-15T04:42:53.015Z,52.31
2019-01-15T04:45:21.798Z,52.42
2019-01-15T04:47:48.897Z,52.59
2019-01-15T04:50:16.019Z,52.52
2019-01-15T04:52:45.140Z,52.62
2019-01-15T04:55:12.653Z,52.92
2019-01-15T04:57:39.840Z,53.03
2019-01-15T05:00:10.541Z,53.07
2019-01-15T05:02:38.957Z,53.07
2019-01-15T05:05:06.452Z,53.16
2019-01-15T05:07:33.545Z,53.15
2019-01-15T05:10:00.646Z,53.03
2019-01-15T05:12:27.741Z,53.22
2019-01-15T05:14:54.843Z,53.13
2019-01-15T05:17:21.966Z,53.20
2019-01-15T05:19:49.057Z,53.49
2019-01-15T05:22:16.160Z,53.44
2019-01-15T05:24:43.261Z,53.50
2019-01-15T05:27:10.365Z,53.63
2019-01-15T05:29:37.465Z,53.72
2019-01-15T05:32:04.843Z,53.96
2019-01-15T05:34:32.106Z,54.01
2019-01-15T05:37:00.371Z,54.08
2019-01-15T05:39:27.610Z,54.08
2019-01-15T05:41:56.379Z,54.14
2019-01-15T05:44:23.671Z,54.28
2019-01-15T05:46:50.968Z,54.51
2019-01-15T05:49:19.347Z,54.40
2019-01-15T05:51:46.539Z,54.54
2019-01-15T05:54:15.623Z,54.66
2019-01-15T05:56:43.951Z,54.82
2019-01-15T05:59:12.149Z,54.92
2019-01-15T06:01:39.804Z,55.07
2019-01-15T06:04:07.016Z,55.27
2019-01-15T06:06:34.127Z,55.33
2019-01-15T06:09:01.348Z,55.33
2019-01-15T06:11:29.590Z,55.28
2019-01-15T06:13:57.220Z,55.36
2019-01-15T06:16:24.493Z,55.38
2019-01-15T06:18:51.773Z,55.46
2019-01-15T06:21:19.980Z,55.54
2019-01-15T06:23:47.182Z,55.53
2019-01-15T06:26:14.391Z,55.67
2019-01-15T06:28:42.322Z,55.82
2019-01-15T06:31:09.877Z,55.85
2019-01-15T06:33:38.976Z,55.98
2019-01-15T06:36:08.979Z,56.05
2019-01-15T06:38:36.233Z,56.14
2019-01-15T06:41:04.640Z,56.27
2019-01-15T06:43:32.892Z,56.47
2019-01-15T06:46:01.937Z,56.50
2019-01-15T06:48:30.836Z,56.65
2019-01-15T06:50:58.157Z,56.79
2019-01-15T06:53:25.468Z,56.82
2019-01-15T06:55:52.680Z,56.92
2019-01-15T06:58:20.013Z,57.08
2019-01-15T07:00:47.365Z,57.30
2019-01-15T07:03:16.650Z,57.31
2019-01-15T07:05:44.035Z,57.37
2019-01-15T07:08:11.371Z,57.41
2019-01-15T07:10:39.224Z,57.47
2019-01-15T07:13:09.273Z,57.42
2019-01-15T07:15:36.622Z,57.46
2019-01-15T07:18:04.893Z,57.50
2019-01-15T07:20:34.001Z,57.48
2019-01-15T07:23:01.451Z,57.47
2019-01-15T07:25:30.736Z,57.53
2019-01-15T07:27:58.415Z,57.53
2019-01-15T07:30:34.973Z,57.67
2019-01-15T07:33:02.096Z,57.71
2019-01-15T07:35:29.185Z,57.81
2019-01-15T07:37:56.296Z,57.90
2019-01-15T07:40:23.430Z,58.05
2019-01-15T07:42:50.525Z,58.12
2019-01-15T07:45:17.623Z,58.27
2019-01-15T07:47:44.728Z,58.44
2019-01-15T07:50:14.024Z,58.47
2019-01-15T07:52:42.877Z,58.55
2019-01-15T07:55:10.990Z,58.67
2019-01-15T07:57:38.083Z,58.75
2019-01-15T08:00:06.364Z,58.82
2019-01-15T08:02:33.521Z,58.84
2019-01-15T08:05:00.612Z,58.94
2019-01-15T08:07:27.704Z,59.01
2019-01-15T08:09:54.802Z,59.07
2019-01-15T08:12:21.885Z,59.12
2019-01-15T08:14:48.984Z,59.28
2019-01-15T08:17:16.100Z,59.40
2019-01-15T08:19:43.201Z,59.40
2019-01-15T08:22:10.298Z,59.57
2019-01-15T08:24:37.430Z,59.65
2019-01-15T08:27:04.521Z,59.75
2019-01-15T08:29:31.628Z,59.77
2019-01-15T08:31:58.732Z,59.84
2019-01-15T08:34:25.841Z,59.89
2019-01-15T08:36:52.931Z,59.91
2019-01-15T08:39:20.024Z,59.94
2019-01-15T08:41:47.127Z,59.96
2019-01-15T08:44:19.141Z,60.07
2019-01-15T08:46:43.268Z,60.16
2019-01-15T08:49:10.390Z,60.22
2019-01-15T08:51:37.480Z,60.30
2019-01-15T08:54:04.873Z,60.38
2019-01-15T08:56:31.972Z,60.38
2019-01-15T08:58:59.065Z,60.39
2019-01-15T09:01:26.164Z,60.44
2019-01-15T09:03:53.256Z,60.46
2019-01-15T09:06:20.353Z,60.45
2019-01-15T09:08:47.453Z,60.50
2019-01-15T09:11:14.656Z,60.45
2019-01-15T09:13:41.757Z,60.49
2019-01-15T09:16:08.860Z,60.52
2019-01-15T09:18:35.966Z,60.54
2019-01-15T09:21:03.156Z,60.55
2019-01-15T09:23:30.268Z,60.59
2019-01-15T09:25:57.350Z,60.63
2019-01-15T09:28:24.458Z,60.66
2019-01-15T09:30:51.557Z,60.60
2019-01-15T09:33:18.652Z,60.54
2019-01-15T09:35:45.830Z,60.53
2019-01-15T09:38:13.435Z,60.48
2019-01-15T09:40:40.532Z,60.31
2019-01-15T09:43:07.624Z,60.25
2019-01-15T09:45:34.821Z,60.20
2019-01-15T09:48:21.485Z,60.31
2019-01-15T09:50:48.633Z,60.21
2019-01-15T09:53:15.751Z,60.31
2019-01-15T09:55:42.852Z,59.74
2019-01-15T09:58:09.947Z,59.39
2019-01-15T10:00:37.045Z,59.21
2019-01-15T10:03:06.824Z,58.95
2019-01-15T10:05:35.093Z,58.79
2019-01-15T10:08:02.297Z,58.85
2019-01-15T10:10:29.409Z,58.87
2019-01-15T10:12:56.639Z,58.89
2019-01-15T10:15:24.068Z,58.66
2019-01-15T10:17:51.422Z,58.85
2019-01-15T10:20:18.905Z,58.87
2019-01-15T10:22:48.976Z,59.02
2019-01-15T10:25:19.983Z,58.56
2019-01-15T10:27:48.458Z,58.46
2019-01-15T10:30:40.441Z,58.44
2019-01-15T10:33:33.214Z,58.07
2019-01-15T10:35:59.491Z,57.98
2019-01-15T10:38:28.752Z,58.01
2019-01-15T10:40:58.092Z,57.98
2019-01-15T10:43:26.241Z,57.90
2019-01-15T10:45:53.347Z,57.93
2019-01-15T10:48:20.440Z,57.97
2019-01-15T10:50:47.570Z,57.89
2019-01-15T10:53:14.659Z,57.93
2019-01-15T10:55:41.855Z,57.72
2019-01-15T10:58:08.949Z,57.77
2019-01-15T11:00:36.039Z,57.86
2019-01-15T11:03:05.084Z,57.69
2019-01-15T11:05:32.481Z,57.64
2019-01-15T11:08:01.577Z,57.48
2019-01-15T11:10:30.062Z,57.75
2019-01-15T11:12:58.979Z,57.69
2019-01-15T11:15:27.485Z,57.60
2019-01-15T11:17:54.860Z,57.41
2019-01-15T11:20:22.402Z,57.51
2019-01-15T11:22:50.793Z,57.63
2019-01-15T11:25:21.596Z,57.57
2019-01-15T11:27:48.705Z,57.16
2019-01-15T11:30:16.320Z,57.05
2019-01-15T11:32:43.447Z,57.20
2019-01-15T11:35:10.662Z,56.94
2019-01-15T11:37:37.850Z,57.04
2019-01-15T11:40:06.521Z,57.08
2019-01-15T11:42:33.620Z,57.13
2019-01-15T11:45:03.570Z,56.96
2019-01-15T11:47:29.830Z,57.12
2019-01-15T11:49:56.931Z,57.16
2019-01-15T11:52:24.100Z,57.18
2019-01-15T11:54:51.192Z,57.25
2019-01-15T11:57:18.286Z,57.33
2019-01-15T11:59:45.396Z,57.16
2019-01-15T12:02:22.316Z,57.13
2019-01-15T12:05:18.351Z,57.20
2019-01-15T12:08:03.794Z,57.37
2019-01-15T12:10:53.469Z,57.47
2019-01-15T12:13:38.779Z,57.45
2019-01-15T12:16:24.495Z,57.55
2019-01-15T12:19:10.053Z,57.64
2019-01-15T12:22:02.748Z,57.79
2019-01-15T12:24:58.260Z,57.98
2019-01-15T12:27:49.858Z,58.06
2019-01-15T12:30:52.066Z,58.25
2019-01-15T12:33:44.575Z,58.44
2019-01-15T12:36:46.372Z,58.55
2019-01-15T12:39:45.078Z,58.72
2019-01-15T12:42:49.852Z,58.70
2019-01-15T12:45:39.887Z,58.66
2019-01-15T12:48:26.558Z,58.70
2019-01-15T12:51:25.491Z,58.82
2019-01-15T12:54:10.934Z,58.96
2019-01-15T12:57:00.550Z,58.98
2019-01-15T12:59:47.857Z,58.91
2019-01-15T13:02:30.246Z,58.99
2019-01-15T13:05:22.088Z,59.01
2019-01-15T13:08:07.749Z,59.07
2019-01-15T13:10:58.413Z,59.12
2019-01-15T13:13:46.709Z,59.15
2019-01-15T13:16:50.174Z,59.28
2019-01-15T13:19:35.737Z,59.40
2019-01-15T13:22:11.858Z,59.50
2019-01-15T13:25:11.975Z,59.64
2019-01-15T13:28:08.611Z,59.72
2019-01-15T13:30:58.582Z,59.72
2019-01-15T13:33:52.070Z,59.80
2019-01-15T13:36:38.740Z,59.89
2019-01-15T13:39:25.394Z,59.88
2019-01-15T13:42:10.913Z,60.01
2019-01-15T13:44:51.736Z,60.08
2019-01-15T13:47:58.665Z,60.21
2019-01-15T13:50:42.608Z,60.28
2019-01-15T13:53:30.145Z,60.21
2019-01-15T13:56:28.986Z,60.21
2019-01-15T13:59:20.415Z,60.17
2019-01-15T14:02:05.748Z,60.14
2019-01-15T14:05:05.681Z,60.17
2019-01-15T14:07:52.608Z,60.10
2019-01-15T14:10:45.012Z,60.04
2019-01-15T14:13:38.149Z,60.15
2019-01-15T14:16:23.779Z,60.24
2019-01-15T14:19:16.425Z,60.30
2019-01-15T14:22:03.106Z,60.38
2019-01-15T14:24:58.427Z,60.52
2019-01-15T14:27:50.329Z,60.58
2019-01-15T14:30:35.944Z,60.60
2019-01-15T14:33:20.053Z,60.70
2019-01-15T14:36:25.218Z,60.71
2019-01-15T14:39:18.066Z,60.78
2019-01-15T14:42:03.872Z,60.88
2019-01-15T14:44:56.416Z,60.95
2019-01-15T14:47:44.485Z,60.96
2019-01-15T14:50:41.969Z,61.02
2019-01-15T14:53:43.654Z,61.13
2019-01-15T14:56:41.351Z,61.29
2019-01-15T14:59:26.587Z,61.41
2019-01-15T15:02:12.143Z,61.41
2019-01-15T15:04:57.537Z,61.50
2019-01-15T15:07:43.108Z,61.58
2019-01-15T15:10:29.425Z,61.64
2019-01-15T15:13:14.888Z,61.80
2019-01-15T15:16:07.638Z,61.91
2019-01-15T15:18:42.392Z,61.96
2019-01-15T15:21:27.934Z,62.03
2019-01-15T15:24:13.811Z,62.09
2019-01-15T15:26:59.232Z,62.13
2019-01-15T15:29:48.830Z,62.22
2019-01-15T15:32:36.111Z,62.24
2019-01-15T15:35:32.888Z,62.33
2019-01-15T15:38:34.663Z,62.36
2019-01-15T15:41:18.923Z,62.47
2019-01-15T15:44:11.294Z,62.48
2019-01-15T15:46:56.756Z,62.56
2019-01-15T15:49:52.607Z,62.64
2019-01-15T15:52:41.956Z,62.71
2019-01-15T15:55:42.576Z,62.85
2019-01-15T15:58:32.045Z,62.88
2019-01-15T16:01:19.968Z,62.90
2019-01-15T16:04:05.409Z,63.00
2019-01-15T16:06:43.773Z,63.08
2019-01-15T16:09:29.343Z,63.11
2019-01-15T16:12:24.144Z,63.16
2019-01-15T16:15:09.489Z,63.19
2019-01-15T16:18:08.383Z,63.15
2019-01-15T16:20:53.707Z,63.17
2019-01-15T16:23:49.431Z,63.21
2019-01-15T16:26:30.129Z,63.25
2019-01-15T16:29:13.198Z,63.30
2019-01-15T16:31:51.927Z,63.34
2019-01-15T16:34:53.919Z,63.35
2019-01-15T16:37:40.579Z,63.34
2019-01-15T16:40:38.674Z,63.30
2019-01-15T16:43:24.244Z,63.36
2019-01-15T16:46:26.253Z,63.32
2019-01-15T16:49:14.621Z,63.36
2019-01-15T16:51:59.713Z,63.32
2019-01-15T16:54:58.664Z,63.33
2019-01-15T16:57:45.327Z,63.33
2019-01-15T17:00:53.104Z,63.33
2019-01-15T17:03:33.515Z,63.38
2019-01-15T17:06:25.909Z,63.39
2019-01-15T17:09:12.580Z,63.46
2019-01-15T17:11:57.914Z,63.49
2019-01-15T17:15:00.002Z,63.55
2019-01-15T17:17:45.156Z,63.56
2019-01-15T17:20:29.159Z,63.54
2019-01-15T17:23:15.888Z,63.57
2019-01-15T17:26:05.717Z,63.59
2019-01-15T17:28:50.814Z,63.66
2019-01-15T17:31:29.854Z,63.70
2019-01-15T17:34:19.160Z,63.70
2019-01-15T17:36:55.948Z,63.74
2019-01-15T17:39:32.392Z,63.79
2019-01-15T17:42:27.838Z,63.83
2019-01-15T17:45:17.138Z,63.88
2019-01-15T17:48:15.772Z,63.85
2019-01-15T17:51:08.444Z,63.92
2019-01-15T17:53:53.948Z,63.89
2019-01-15T17:56:55.852Z,63.91
2019-01-15T17:59:41.105Z,63.85
2019-01-15T18:02:26.364Z,63.86
2019-01-15T18:05:11.714Z,63.89
2019-01-15T18:07:57.470Z,63.90
2019-01-15T18:10:56.435Z,63.89
2019-01-15T18:13:41.844Z,63.96
2019-01-15T18:16:38.476Z,64.03
2019-01-15T18:19:37.446Z,64.04
2019-01-15T18:22:32.825Z,64.07
2019-01-15T18:25:19.503Z,64.10
2019-01-15T18:28:05.193Z,64.09
2019-01-15T18:30:59.753Z,64.13
2019-01-15T18:33:38.609Z,64.07
2019-01-15T18:36:27.960Z,64.03
2019-01-15T18:39:03.115Z,64.02
2019-01-15T18:41:41.245Z,64.02
2019-01-15T18:44:30.564Z,64.07
2019-01-15T18:47:24.648Z,64.07
2019-01-15T18:50:14.048Z,64.05
2019-01-15T18:53:06.603Z,64.06
2019-01-15T18:55:46.826Z,64.07
2019-01-15T18:58:39.603Z,64.04
2019-01-15T19:01:30.095Z,64.04
2019-01-15T19:04:21.920Z,63.94
2019-01-15T19:07:07.332Z,63.89
2019-01-15T19:09:52.996Z,63.86
2019-01-15T19:12:57.960Z,63.83
2019-01-15T19:15:41.760Z,63.80
2019-01-15T19:18:37.436Z,63.78
2019-01-15T19:21:24.148Z,63.85
2019-01-15T19:24:19.650Z,63.86
2019-01-15T19:27:18.284Z,63.74
2019-01-15T19:30:10.702Z,63.68
2019-01-15T19:33:09.692Z,63.69
2019-01-15T19:35:52.746Z,63.60
2019-01-15T19:38:32.884Z,63.59
2019-01-15T19:41:21.766Z,63.64
2019-01-15T19:44:07.191Z,63.68
2019-01-15T19:46:52.940Z,63.65
2019-01-15T19:49:38.329Z,63.61
2019-01-15T19:52:28.066Z,63.61
2019-01-15T19:55:29.953Z,63.53
2019-01-15T19:58:16.645Z,63.52
2019-01-15T20:01:09.294Z,63.52
2019-01-15T20:03:52.911Z,63.53
2019-01-15T20:06:39.969Z,63.58
2019-01-15T20:09:26.210Z,63.55
2019-01-15T20:12:13.697Z,63.56
2019-01-15T20:15:03.190Z,63.58
2019-01-15T20:17:48.225Z,63.58
2019-01-15T20:20:44.023Z,63.61
2019-01-15T20:23:30.665Z,63.60
2019-01-15T20:26:23.491Z,63.52
2019-01-15T20:29:10.261Z,63.52
2019-01-15T20:31:56.055Z,63.58
2019-01-15T20:34:58.112Z,63.67
2019-01-15T20:37:50.503Z,63.67
2019-01-15T20:40:42.942Z,63.75
2019-01-15T20:43:38.434Z,63.73
2019-01-15T20:46:27.849Z,63.79
2019-01-15T20:49:13.607Z,63.79
2019-01-15T20:52:06.434Z,63.84
2019-01-15T20:54:55.479Z,63.83
2019-01-15T20:57:42.169Z,63.92
2019-01-15T21:00:35.688Z,63.99
2019-01-15T21:03:34.286Z,64.05
2019-01-15T21:06:27.504Z,64.08
2019-01-15T21:09:32.292Z,64.09
2019-01-15T21:12:21.748Z,64.14
2019-01-15T21:15:26.548Z,64.17
2019-01-15T21:18:19.012Z,64.28
2019-01-15T21:21:20.746Z,64.33
2019-01-15T21:24:13.223Z,64.43
2019-01-15T21:26:58.456Z,64.49
2019-01-15T21:29:39.058Z,64.53
2019-01-15T21:32:36.008Z,64.63
2019-01-15T21:35:32.536Z,64.72
2019-01-15T21:38:18.036Z,64.74
2019-01-15T21:41:04.719Z,64.79
2019-01-15T21:43:45.678Z,64.80
2019-01-15T21:46:35.237Z,64.85
2019-01-15T21:49:20.635Z,64.95
2019-01-15T21:52:05.953Z,65.04
2019-01-15T21:54:51.433Z,65.12
2019-01-15T21:57:50.374Z,65.15
2019-01-15T22:00:49.037Z,65.14
2019-01-15T22:03:45.120Z,65.16
2019-01-15T22:06:50.360Z,65.18
2019-01-15T22:09:43.082Z,65.20
2019-01-15T22:12:28.421Z,65.26
2019-01-15T22:15:27.169Z,65.33
2019-01-15T22:18:16.777Z,65.39
2019-01-15T22:21:06.272Z,65.48
2019-01-15T22:23:50.827Z,65.49
2019-01-15T22:26:36.176Z,65.58
2019-01-15T22:29:35.115Z,65.62
2019-01-15T22:32:30.601Z,65.71
2019-01-15T22:35:23.018Z,65.71
2019-01-15T22:38:00.205Z,65.69
2019-01-15T22:40:45.438Z,65.73
2019-01-15T22:43:28.461Z,65.87
2019-01-15T22:46:17.796Z,65.87
2019-01-15T22:49:11.858Z,65.99
2019-01-15T22:51:58.528Z,66.04
2019-01-15T22:54:51.321Z,66.09
2019-01-15T22:57:43.652Z,66.30
2019-01-15T23:00:48.223Z,66.30
2019-01-15T23:03:45.352Z,66.23
2019-01-15T23:06:43.977Z,66.36
2019-01-15T23:09:35.548Z,66.36
2019-01-15T23:12:28.455Z,66.36
2019-01-15T23:15:04.954Z,66.58
2019-01-15T23:18:02.229Z,66.58
2019-01-15T23:21:01.604Z,66.64
2019-01-15T23:23:53.957Z,66.67
2019-01-15T23:26:39.113Z,66.89
2019-01-15T23:29:31.420Z,66.89
2019-01-15T23:32:25.077Z,66.60
2019-01-15T23:35:20.710Z,66.74
2019-01-15T23:38:21.070Z,66.78
2019-01-15T23:41:02.893Z,66.80
2019-01-15T23:43:45.116Z,66.77
2019-01-15T23:46:50.010Z,66.75
2019-01-15T23:49:26.208Z,66.83
2019-01-15T23:52:21.937Z,66.79
2019-01-15T23:55:07.257Z,66.84
